sensor_id;sensor_type;location;lat;lon;timestamp;pressure;altitude;pressure_sealevel;temperature;humidity
31483;BME280;18103;52.246;8.052;2024-03-23T00:54:33;99464.47;;;7.33;100.00
31483;BME280;18103;52.246;8.052;2024-03-23T00:56:58;99450.63;;;7.31;100.00
31483;BME280;18103;52.246;8.052;2024-03-23T00:59:25;99450.03;;;7.28;100.00
31483;BME280;18103;52.246;8.052;2024-03-23T01:01:56;99446.56;;;7.27;100.00
31483;BME280;18103;52.246;8.052;2024-03-23T01:04:24;99451.00;;;7.27;100.00
31483;BME280;18103;52.246;8.052;2024-03-23T01:06:49;99434.06;;;7.19;100.00
31483;BME280;18103;52.246;8.052;2024-03-23T01:09:15;99430.72;;;7.17;100.00
31483;BME280;18103;52.246;8.052;2024-03-23T01:11:45;99435.59;;;7.33;100.00
31483;BME280;18103;52.246;8.052;2024-03-23T01:14:12;99437.97;;;7.36;100.00
31483;BME280;18103;52.246;8.052;2024-03-23T01:16:37;99429.13;;;7.49;100.00
31483;BME280;18103;52.246;8.052;2024-03-23T01:19:05;99430.97;;;7.58;100.00
31483;BME280;18103;52.246;8.052;2024-03-23T01:21:34;99418.81;;;7.57;99.86
31483;BME280;18103;52.246;8.052;2024-03-23T01:24:04;99419.78;;;7.56;100.00
31483;BME280;18103;52.246;8.052;2024-03-23T01:26:31;99421.09;;;7.50;100.00
31483;BME280;18103;52.246;8.052;2024-03-23T01:28:59;99420.28;;;7.50;100.00
31483;BME280;18103;52.246;8.052;2024-03-23T01:31:24;99421.69;;;7.54;100.00
31483;BME280;18103;52.246;8.052;2024-03-23T01:33:49;99420.72;;;7.55;100.00
31483;BME280;18103;52.246;8.052;2024-03-23T01:36:15;99407.50;;;7.45;100.00
31483;BME280;18103;52.246;8.052;2024-03-23T01:38:46;99417.53;;;7.51;100.00
31483;BME280;18103;52.246;8.052;2024-03-23T01:41:13;99417.28;;;7.54;100.00
31483;BME280;18103;52.246;8.052;2024-03-23T01:43:38;99420.03;;;7.53;100.00
31483;BME280;18103;52.246;8.052;2024-03-23T01:46:06;99419.25;;;7.30;100.00
31483;BME280;18103;52.246;8.052;2024-03-23T01:48:36;99409.25;;;7.24;100.00
31483;BME280;18103;52.246;8.052;2024-03-23T01:51:01;99409.50;;;7.21;100.00
31483;BME280;18103;52.246;8.052;2024-03-23T01:53:28;99409.59;;;7.19;100.00
31483;BME280;18103;52.246;8.052;2024-03-23T01:55:58;99416.75;;;7.17;100.00
31483;BME280;18103;52.246;8.052;2024-03-23T01:58:26;99403.19;;;7.00;100.00
31483;BME280;18103;52.246;8.052;2024-03-23T02:00:53;99399.97;;;7.08;100.00
31483;BME280;18103;52.246;8.052;2024-03-23T02:03:28;99400.22;;;7.05;100.00
31483;BME280;18103;52.246;8.052;2024-03-23T02:05:54;99399.63;;;7.01;99.97
31483;BME280;18103;52.246;8.052;2024-03-23T02:08:21;99407.56;;;7.23;100.00
31483;BME280;18103;52.246;8.052;2024-03-23T02:10:50;99394.94;;;7.16;99.91
31483;BME280;18103;52.246;8.052;2024-03-23T02:13:17;99394.59;;;7.10;99.80
31483;BME280;18103;52.246;8.052;2024-03-23T02:15:45;99396.69;;;7.27;100.00
31483;BME280;18103;52.246;8.052;2024-03-23T02:18:11;99386.47;;;7.13;100.00
31483;BME280;18103;52.246;8.052;2024-03-23T02:20:37;99378.28;;;6.95;100.00
31483;BME280;18103;52.246;8.052;2024-03-23T02:23:05;99384.59;;;6.92;100.00
31483;BME280;18103;52.246;8.052;2024-03-23T02:25:35;99378.41;;;6.82;100.00
31483;BME280;18103;52.246;8.052;2024-03-23T02:28:03;99380.31;;;6.68;100.00
31483;BME280;18103;52.246;8.052;2024-03-23T02:30:33;99381.53;;;6.76;100.00
31483;BME280;18103;52.246;8.052;2024-03-23T02:33:00;99379.97;;;6.84;100.00
31483;BME280;18103;52.246;8.052;2024-03-23T02:35:28;99373.75;;;6.97;100.00
31483;BME280;18103;52.246;8.052;2024-03-23T02:37:54;99377.56;;;7.04;99.93
31483;BME280;18103;52.246;8.052;2024-03-23T02:40:26;99382.94;;;7.02;100.00
31483;BME280;18103;52.246;8.052;2024-03-23T02:42:54;99377.19;;;6.97;100.00
31483;BME280;18103;52.246;8.052;2024-03-23T02:45:22;99364.44;;;6.93;100.00
31483;BME280;18103;52.246;8.052;2024-03-23T02:47:47;99358.63;;;6.78;99.98
31483;BME280;18103;52.246;8.052;2024-03-23T02:50:19;99359.09;;;6.94;99.98
31483;BME280;18103;52.246;8.052;2024-03-23T02:52:45;99363.03;;;6.77;100.00
31483;BME280;18103;52.246;8.052;2024-03-23T02:55:16;99358.38;;;6.81;100.00
31483;BME280;18103;52.246;8.052;2024-03-23T02:57:43;99359.69;;;6.87;100.00
31483;BME280;18103;52.246;8.052;2024-03-23T03:00:11;99352.28;;;6.92;100.00
31483;BME280;18103;52.246;8.052;2024-03-23T03:02:42;99349.81;;;6.79;100.00
31483;BME280;18103;52.246;8.052;2024-03-23T03:05:12;99355.38;;;6.74;100.00
31483;BME280;18103;52.246;8.052;2024-03-23T03:07:41;99355.16;;;6.89;100.00
31483;BME280;18103;52.246;8.052;2024-03-23T03:10:07;99351.81;;;6.75;100.00
31483;BME280;18103;52.246;8.052;2024-03-23T03:12:37;99344.56;;;6.79;100.00
31483;BME280;18103;52.246;8.052;2024-03-23T03:15:05;99334.22;;;6.66;100.00
31483;BME280;18103;52.246;8.052;2024-03-23T03:17:33;99341.22;;;6.65;100.00
31483;BME280;18103;52.246;8.052;2024-03-23T03:19:59;99339.22;;;6.58;100.00
31483;BME280;18103;52.246;8.052;2024-03-23T03:22:25;99345.53;;;6.55;100.00
31483;BME280;18103;52.246;8.052;2024-03-23T03:24:54;99347.41;;;6.64;100.00
31483;BME280;18103;52.246;8.052;2024-03-23T03:27:20;99340.28;;;6.66;100.00
31483;BME280;18103;52.246;8.052;2024-03-23T03:29:46;99338.25;;;6.59;100.00
31483;BME280;18103;52.246;8.052;2024-03-23T03:32:14;99329.19;;;6.51;100.00
31483;BME280;18103;52.246;8.052;2024-03-23T03:34:39;99323.94;;;6.51;100.00
31483;BME280;18103;52.246;8.052;2024-03-23T03:37:09;99323.59;;;6.67;100.00
31483;BME280;18103;52.246;8.052;2024-03-23T03:39:39;99320.50;;;6.51;100.00
31483;BME280;18103;52.246;8.052;2024-03-23T03:42:07;99328.00;;;6.44;100.00
31483;BME280;18103;52.246;8.052;2024-03-23T03:44:37;99318.47;;;6.55;100.00
31483;BME280;18103;52.246;8.052;2024-03-23T03:47:02;99316.34;;;6.48;100.00
31483;BME280;18103;52.246;8.052;2024-03-23T03:49:28;99325.88;;;6.61;100.00
31483;BME280;18103;52.246;8.052;2024-03-23T03:51:53;99329.19;;;6.63;100.00
31483;BME280;18103;52.246;8.052;2024-03-23T03:54:18;99341.81;;;6.80;100.00
31483;BME280;18103;52.246;8.052;2024-03-23T03:56:46;99343.13;;;6.75;100.00
31483;BME280;18103;52.246;8.052;2024-03-23T03:59:14;99342.66;;;6.70;100.00
31483;BME280;18103;52.246;8.052;2024-03-23T04:01:40;99327.53;;;6.62;100.00
31483;BME280;18103;52.246;8.052;2024-03-23T04:04:05;99320.50;;;6.51;100.00
31483;BME280;18103;52.246;8.052;2024-03-23T04:06:31;99321.69;;;6.58;100.00
31483;BME280;18103;52.246;8.052;2024-03-23T04:08:58;99323.13;;;6.62;100.00
31483;BME280;18103;52.246;8.052;2024-03-23T04:11:28;99326.19;;;6.79;100.00
31483;BME280;18103;52.246;8.052;2024-03-23T04:13:55;99325.25;;;6.57;100.00
31483;BME280;18103;52.246;8.052;2024-03-23T04:16:29;99324.91;;;6.50;100.00
31483;BME280;18103;52.246;8.052;2024-03-23T04:19:00;99327.75;;;6.59;100.00
31483;BME280;18103;52.246;8.052;2024-03-23T04:21:25;99321.31;;;6.63;100.00
31483;BME280;18103;52.246;8.052;2024-03-23T04:23:56;99308.69;;;6.68;100.00
31483;BME280;18103;52.246;8.052;2024-03-23T04:26:23;99302.75;;;6.66;100.00
31483;BME280;18103;52.246;8.052;2024-03-23T04:28:48;99292.81;;;6.70;100.00
31483;BME280;18103;52.246;8.052;2024-03-23T04:31:16;99303.41;;;6.79;99.87
31483;BME280;18103;52.246;8.052;2024-03-23T04:33:44;99309.50;;;6.68;100.00
31483;BME280;18103;52.246;8.052;2024-03-23T04:36:10;99315.13;;;6.53;100.00
31483;BME280;18103;52.246;8.052;2024-03-23T04:38:38;99303.81;;;6.63;100.00
31483;BME280;18103;52.246;8.052;2024-03-23T04:41:09;99308.81;;;6.66;100.00
31483;BME280;18103;52.246;8.052;2024-03-23T04:43:36;99310.38;;;6.58;100.00
31483;BME280;18103;52.246;8.052;2024-03-23T04:46:02;99298.06;;;6.70;100.00
31483;BME280;18103;52.246;8.052;2024-03-23T04:48:30;99287.72;;;6.57;100.00
31483;BME280;18103;52.246;8.052;2024-03-23T04:50:58;99290.81;;;6.62;100.00
31483;BME280;18103;52.246;8.052;2024-03-23T04:53:24;99284.84;;;6.60;100.00
31483;BME280;18103;52.246;8.052;2024-03-23T04:55:55;99286.19;;;6.54;100.00
31483;BME280;18103;52.246;8.052;2024-03-23T04:58:22;99283.31;;;6.46;100.00
31483;BME280;18103;52.246;8.052;2024-03-23T05:00:52;99282.84;;;6.52;100.00
31483;BME280;18103;52.246;8.052;2024-03-23T05:03:17;99283.31;;;6.46;100.00
31483;BME280;18103;52.246;8.052;2024-03-23T05:05:44;99282.38;;;6.47;100.00
31483;BME280;18103;52.246;8.052;2024-03-23T05:08:09;99279.03;;;6.56;99.98
31483;BME280;18103;52.246;8.052;2024-03-23T05:10:35;99276.28;;;6.58;100.00
31483;BME280;18103;52.246;8.052;2024-03-23T05:13:01;99288.78;;;6.65;100.00
31483;BME280;18103;52.246;8.052;2024-03-23T05:15:31;99286.53;;;6.61;100.00
31483;BME280;18103;52.246;8.052;2024-03-23T05:17:58;99286.56;;;6.49;100.00
31483;BME280;18103;52.246;8.052;2024-03-23T05:20:24;99296.66;;;6.54;100.00
31483;BME280;18103;52.246;8.052;2024-03-23T05:22:49;99286.03;;;6.67;100.00
31483;BME280;18103;52.246;8.052;2024-03-23T05:25:17;99294.53;;;6.48;99.93
31483;BME280;18103;52.246;8.052;2024-03-23T05:27:42;99288.56;;;6.34;100.00
31483;BME280;18103;52.246;8.052;2024-03-23T05:30:10;99287.38;;;6.27;100.00
31483;BME280;18103;52.246;8.052;2024-03-23T05:32:41;99289.88;;;6.40;100.00
31483;BME280;18103;52.246;8.052;2024-03-23T05:35:10;99288.81;;;6.43;100.00
31483;BME280;18103;52.246;8.052;2024-03-23T05:37:40;99282.63;;;6.44;100.00
31483;BME280;18103;52.246;8.052;2024-03-23T05:40:08;99289.06;;;6.40;100.00
31483;BME280;18103;52.246;8.052;2024-03-23T05:42:37;99286.56;;;6.38;100.00
31483;BME280;18103;52.246;8.052;2024-03-23T05:45:02;99288.69;;;6.33;100.00
31483;BME280;18103;52.246;8.052;2024-03-23T05:47:31;99281.09;;;6.19;100.00
31483;BME280;18103;52.246;8.052;2024-03-23T05:49:57;99281.19;;;6.28;100.00
31483;BME280;18103;52.246;8.052;2024-03-23T05:52:24;99279.41;;;6.18;100.00
31483;BME280;18103;52.246;8.052;2024-03-23T05:54:52;99286.53;;;6.15;100.00
31483;BME280;18103;52.246;8.052;2024-03-23T05:57:23;99282.03;;;6.18;100.00
31483;BME280;18103;52.246;8.052;2024-03-23T05:59:51;99283.47;;;6.22;100.00
31483;BME280;18103;52.246;8.052;2024-03-23T06:02:16;99293.00;;;6.11;100.00
31483;BME280;18103;52.246;8.052;2024-03-23T06:04:41;99287.84;;;6.10;100.00
31483;BME280;18103;52.246;8.052;2024-03-23T06:07:07;99286.31;;;6.19;100.00
31483;BME280;18103;52.246;8.052;2024-03-23T06:09:38;99293.13;;;6.21;100.00
31483;BME280;18103;52.246;8.052;2024-03-23T06:12:06;99288.94;;;6.19;100.00
31483;BME280;18103;52.246;8.052;2024-03-23T06:14:34;99286.78;;;6.24;100.00
31483;BME280;18103;52.246;8.052;2024-03-23T06:17:00;99285.47;;;6.18;99.96
31483;BME280;18103;52.246;8.052;2024-03-23T06:19:30;99289.03;;;6.06;100.00
31483;BME280;18103;52.246;8.052;2024-03-23T06:21:55;99288.34;;;6.15;99.56
31483;BME280;18103;52.246;8.052;2024-03-23T06:24:22;99293.00;;;6.11;100.00
31483;BME280;18103;52.246;8.052;2024-03-23T06:26:49;99287.63;;;6.02;100.00
31483;BME280;18103;52.246;8.052;2024-03-23T06:29:15;99285.00;;;6.13;100.00
31483;BME280;18103;52.246;8.052;2024-03-23T06:31:40;99289.41;;;6.24;100.00
31483;BME280;18103;52.246;8.052;2024-03-23T06:34:08;99285.06;;;5.89;100.00
31483;BME280;18103;52.246;8.052;2024-03-23T06:36:34;99289.09;;;5.93;100.00
31483;BME280;18103;52.246;8.052;2024-03-23T06:39:03;99296.16;;;5.92;100.00
31483;BME280;18103;52.246;8.052;2024-03-23T06:41:34;99298.50;;;5.84;100.00
31483;BME280;18103;52.246;8.052;2024-03-23T06:44:03;99296.97;;;5.93;100.00
31483;BME280;18103;52.246;8.052;2024-03-23T06:46:33;99294.19;;;6.07;100.00
31483;BME280;18103;52.246;8.052;2024-03-23T06:49:01;99297.00;;;6.04;100.00
31483;BME280;18103;52.246;8.052;2024-03-23T06:51:28;99294.47;;;5.91;100.00
31483;BME280;18103;52.246;8.052;2024-03-23T06:53:58;99290.53;;;5.97;100.00
31483;BME280;18103;52.246;8.052;2024-03-23T06:56:24;99290.53;;;5.97;100.00
31483;BME280;18103;52.246;8.052;2024-03-23T06:58:49;99299.75;;;6.03;100.00
31483;BME280;18103;52.246;8.052;2024-03-23T07:01:20;99302.16;;;6.28;100.00
31483;BME280;18103;52.246;8.052;2024-03-23T07:03:45;99298.81;;;6.26;100.00
31483;BME280;18103;52.246;8.052;2024-03-23T07:06:12;99308.47;;;6.26;100.00
31483;BME280;18103;52.246;8.052;2024-03-23T07:08:40;99305.84;;;6.48;100.00
31483;BME280;18103;52.246;8.052;2024-03-23T07:11:06;99296.31;;;6.47;100.00
31483;BME280;18103;52.246;8.052;2024-03-23T07:13:38;99303.59;;;6.44;100.00
31483;BME280;18103;52.246;8.052;2024-03-23T07:16:06;99305.72;;;6.61;100.00
31483;BME280;18103;52.246;8.052;2024-03-23T07:18:34;99301.06;;;6.65;100.00
31483;BME280;18103;52.246;8.052;2024-03-23T07:20:59;99291.59;;;6.85;100.00
31483;BME280;18103;52.246;8.052;2024-03-23T07:23:25;99294.22;;;6.85;100.00
31483;BME280;18103;52.246;8.052;2024-03-23T07:26:03;99291.13;;;6.91;100.00
31483;BME280;18103;52.246;8.052;2024-03-23T07:28:33;99290.63;;;6.97;100.00
31483;BME280;18103;52.246;8.052;2024-03-23T07:31:11;99289.34;;;7.24;100.00
31483;BME280;18103;52.246;8.052;2024-03-23T07:33:44;99295.78;;;7.20;99.62
31483;BME280;18103;52.246;8.052;2024-03-23T07:36:10;99288.34;;;7.36;100.00
31483;BME280;18103;52.246;8.052;2024-03-23T07:38:41;99282.56;;;7.43;99.01
31483;BME280;18103;52.246;8.052;2024-03-23T07:41:19;99287.72;;;7.65;99.21
31483;BME280;18103;52.246;8.052;2024-03-23T07:43:46;99287.25;;;7.60;98.16
31483;BME280;18103;52.246;8.052;2024-03-23T07:46:12;99292.84;;;7.67;98.84
31483;BME280;18103;52.246;8.052;2024-03-23T07:48:38;99292.59;;;7.70;98.17
31483;BME280;18103;52.246;8.052;2024-03-23T07:51:08;99300.63;;;7.99;98.87
31483;BME280;18103;52.246;8.052;2024-03-23T07:53:35;99289.19;;;8.00;98.45
31483;BME280;18103;52.246;8.052;2024-03-23T07:56:05;99289.31;;;7.99;97.98
31483;BME280;18103;52.246;8.052;2024-03-23T07:58:31;99292.31;;;7.94;98.15
31483;BME280;18103;52.246;8.052;2024-03-23T08:01:04;99290.41;;;7.75;96.62
31483;BME280;18103;52.246;8.052;2024-03-23T08:03:30;99292.22;;;8.05;97.42
31483;BME280;18103;52.246;8.052;2024-03-23T08:05:58;99288.63;;;8.07;96.54
31483;BME280;18103;52.246;8.052;2024-03-23T08:08:25;99286.97;;;8.05;94.93
31483;BME280;18103;52.246;8.052;2024-03-23T08:10:51;99285.88;;;8.08;95.42
31483;BME280;18103;52.246;8.052;2024-03-23T08:13:19;99282.84;;;8.13;94.61
31483;BME280;18103;52.246;8.052;2024-03-23T08:15:45;99274.09;;;8.33;93.62
31483;BME280;18103;52.246;8.052;2024-03-23T08:18:11;99275.94;;;8.43;94.50
31483;BME280;18103;52.246;8.052;2024-03-23T08:20:40;99280.69;;;8.59;93.53
31483;BME280;18103;52.246;8.052;2024-03-23T08:23:06;99278.25;;;8.67;93.84
31483;BME280;18103;52.246;8.052;2024-03-23T08:25:35;99274.34;;;8.30;91.87
31483;BME280;18103;52.246;8.052;2024-03-23T08:28:00;99273.41;;;8.31;91.13
31483;BME280;18103;52.246;8.052;2024-03-23T08:30:26;99268.50;;;8.57;90.94
31483;BME280;18103;52.246;8.052;2024-03-23T08:32:54;99271.28;;;8.25;89.62
31483;BME280;18103;52.246;8.052;2024-03-23T08:35:24;99277.00;;;7.99;89.14
31483;BME280;18103;52.246;8.052;2024-03-23T08:37:49;99280.94;;;8.15;90.17
31483;BME280;18103;52.246;8.052;2024-03-23T08:40:15;99276.81;;;7.49;88.13
31483;BME280;18103;52.246;8.052;2024-03-23T08:42:40;99268.72;;;7.19;86.56
31483;BME280;18103;52.246;8.052;2024-03-23T08:45:10;99273.34;;;7.27;87.63
31483;BME280;18103;52.246;8.052;2024-03-23T08:47:38;99280.53;;;7.46;86.76
31483;BME280;18103;52.246;8.052;2024-03-23T08:50:06;99273.03;;;7.42;87.45
31483;BME280;18103;52.246;8.052;2024-03-23T08:52:34;99272.63;;;7.25;87.48
31483;BME280;18103;52.246;8.052;2024-03-23T08:55:02;99279.56;;;7.47;87.92
31483;BME280;18103;52.246;8.052;2024-03-23T08:57:29;99272.63;;;7.25;87.20
31483;BME280;18103;52.246;8.052;2024-03-23T08:59:57;99272.16;;;7.20;85.52
31483;BME280;18103;52.246;8.052;2024-03-23T09:02:25;99273.78;;;7.32;85.96
31483;BME280;18103;52.246;8.052;2024-03-23T09:04:50;99267.00;;;7.30;86.44
31483;BME280;18103;52.246;8.052;2024-03-23T09:07:15;99278.78;;;7.35;85.41
31483;BME280;18103;52.246;8.052;2024-03-23T09:09:41;99278.84;;;6.92;84.32
31483;BME280;18103;52.246;8.052;2024-03-23T09:12:11;99277.47;;;7.09;84.17
31483;BME280;18103;52.246;8.052;2024-03-23T09:14:38;99279.69;;;7.13;84.34
31483;BME280;18103;52.246;8.052;2024-03-23T09:17:04;99282.28;;;6.92;82.93
31483;BME280;18103;52.246;8.052;2024-03-23T09:19:30;99284.59;;;6.85;83.54
31483;BME280;18103;52.246;8.052;2024-03-23T09:21:58;99283.03;;;6.83;83.88
31483;BME280;18103;52.246;8.052;2024-03-23T09:24:23;99290.66;;;6.86;83.34
31483;BME280;18103;52.246;8.052;2024-03-23T09:26:54;99301.03;;;6.88;84.38
31483;BME280;18103;52.246;8.052;2024-03-23T09:29:19;99285.88;;;6.80;83.31
31483;BME280;18103;52.246;8.052;2024-03-23T09:31:49;99278.78;;;6.71;83.63
31483;BME280;18103;52.246;8.052;2024-03-23T09:34:19;99280.72;;;6.90;84.31
31483;BME280;18103;52.246;8.052;2024-03-23T09:36:44;99279.44;;;6.95;84.57
31483;BME280;18103;52.246;8.052;2024-03-23T09:39:10;99277.06;;;6.81;84.43
31483;BME280;18103;52.246;8.052;2024-03-23T09:41:36;99279.13;;;6.77;84.83
31483;BME280;18103;52.246;8.052;2024-03-23T09:44:05;99271.47;;;6.74;84.64
31483;BME280;18103;52.246;8.052;2024-03-23T09:46:31;99274.00;;;6.76;84.65
31483;BME280;18103;52.246;8.052;2024-03-23T09:49:02;99268.28;;;6.71;85.04
31483;BME280;18103;52.246;8.052;2024-03-23T09:51:32;99276.47;;;6.89;85.25
31483;BME280;18103;52.246;8.052;2024-03-23T09:53:57;99279.78;;;6.91;85.38
31483;BME280;18103;52.246;8.052;2024-03-23T09:56:22;99267.31;;;6.83;84.87
31483;BME280;18103;52.246;8.052;2024-03-23T09:58:51;99263.69;;;6.95;84.03
31483;BME280;18103;52.246;8.052;2024-03-23T10:01:16;99274.78;;;6.88;82.82
31483;BME280;18103;52.246;8.052;2024-03-23T10:03:45;99271.47;;;6.85;82.39
31483;BME280;18103;52.246;8.052;2024-03-23T10:06:11;99252.13;;;6.87;81.91
31483;BME280;18103;52.246;8.052;2024-03-23T10:08:39;99260.00;;;6.87;81.34
31483;BME280;18103;52.246;8.052;2024-03-23T10:11:18;99269.81;;;6.73;79.65
31483;BME280;18103;52.246;8.052;2024-03-23T10:13:47;99262.53;;;6.77;80.22
31483;BME280;18103;52.246;8.052;2024-03-23T10:16:23;99257.31;;;6.65;79.97
31483;BME280;18103;52.246;8.052;2024-03-23T10:18:54;99265.03;;;6.78;80.39
31483;BME280;18103;52.246;8.052;2024-03-23T10:21:19;99265.19;;;6.65;80.58
31483;BME280;18103;52.246;8.052;2024-03-23T10:23:45;99261.09;;;6.73;80.63
31483;BME280;18103;52.246;8.052;2024-03-23T10:26:21;99255.72;;;6.85;81.22
31483;BME280;18103;52.246;8.052;2024-03-23T10:31:20;99258.88;;;7.00;80.84
31483;BME280;18103;52.246;8.052;2024-03-23T10:33:47;99265.72;;;6.92;82.71
31483;BME280;18103;52.246;8.052;2024-03-23T10:36:13;99267.88;;;6.87;84.25
31483;BME280;18103;52.246;8.052;2024-03-23T10:38:42;99266.59;;;6.70;85.78
31483;BME280;18103;52.246;8.052;2024-03-23T10:41:10;99277.91;;;6.81;86.80
31483;BME280;18103;52.246;8.052;2024-03-23T10:43:36;99278.00;;;6.80;85.72
31483;BME280;18103;52.246;8.052;2024-03-23T10:46:04;99278.00;;;6.80;85.60
31483;BME280;18103;52.246;8.052;2024-03-23T10:48:32;99281.09;;;6.85;85.50
31483;BME280;18103;52.246;8.052;2024-03-23T10:51:00;99280.63;;;6.80;85.83
31483;BME280;18103;52.246;8.052;2024-03-23T10:53:28;99279.44;;;6.84;85.69
31483;BME280;18103;52.246;8.052;2024-03-23T10:55:55;99273.75;;;6.79;84.82
31483;BME280;18103;52.246;8.052;2024-03-23T10:58:31;99270.59;;;6.96;85.51
31483;BME280;18103;52.246;8.052;2024-03-23T11:01:02;99268.22;;;6.93;85.68
31483;BME280;18103;52.246;8.052;2024-03-23T11:06:01;99273.34;;;6.95;85.44
31483;BME280;18103;52.246;8.052;2024-03-23T11:08:38;99281.72;;;6.89;85.63
31483;BME280;18103;52.246;8.052;2024-03-23T11:11:20;99292.34;;;6.87;85.92
31483;BME280;18103;52.246;8.052;2024-03-23T11:13:50;99302.59;;;6.79;85.43
31483;BME280;18103;52.246;8.052;2024-03-23T11:18:51;99301.41;;;6.72;84.27
31483;BME280;18103;52.246;8.052;2024-03-23T11:24:20;99287.88;;;6.21;81.43
31483;BME280;18103;52.246;8.052;2024-03-23T11:26:46;99279.28;;;6.19;82.80
31483;BME280;18103;52.246;8.052;2024-03-23T11:29:16;99277.28;;;6.11;83.96
31483;BME280;18103;52.246;8.052;2024-03-23T11:31:53;99283.81;;;6.51;85.62
31483;BME280;18103;52.246;8.052;2024-03-23T11:34:21;99273.31;;;6.51;85.89
31483;BME280;18103;52.246;8.052;2024-03-23T11:36:50;99271.53;;;6.40;86.29
31483;BME280;18103;52.246;8.052;2024-03-23T11:39:20;99266.41;;;6.39;85.94
31483;BME280;18103;52.246;8.052;2024-03-23T11:41:52;99264.50;;;6.41;86.59
31483;BME280;18103;52.246;8.052;2024-03-23T11:44:19;99267.81;;;6.65;87.61
31483;BME280;18103;52.246;8.052;2024-03-23T11:46:45;99267.81;;;6.65;88.41
31483;BME280;18103;52.246;8.052;2024-03-23T11:49:24;99260.47;;;6.48;87.75
31483;BME280;18103;52.246;8.052;2024-03-23T11:51:53;99253.19;;;6.40;86.43
31483;BME280;18103;52.246;8.052;2024-03-23T11:54:27;99250.91;;;6.47;86.94
31483;BME280;18103;52.246;8.052;2024-03-23T11:56:59;99259.13;;;6.65;87.18
31483;BME280;18103;52.246;8.052;2024-03-23T12:02:11;99258.66;;;6.92;87.04
31483;BME280;18103;52.246;8.052;2024-03-23T12:04:38;99257.13;;;6.90;87.40
31483;BME280;18103;52.246;8.052;2024-03-23T12:07:18;99257.72;;;6.93;86.89
31483;BME280;18103;52.246;8.052;2024-03-23T12:09:44;99245.31;;;7.28;88.29
31483;BME280;18103;52.246;8.052;2024-03-23T12:12:17;99247.81;;;7.29;87.70
31483;BME280;18103;52.246;8.052;2024-03-23T12:15:03;99239.34;;;7.47;86.48
31483;BME280;18103;52.246;8.052;2024-03-23T12:17:34;99234.78;;;7.07;86.82
31483;BME280;18103;52.246;8.052;2024-03-23T12:20:00;99231.94;;;7.31;87.80
31483;BME280;18103;52.246;8.052;2024-03-23T12:22:28;99235.91;;;7.46;88.72
31483;BME280;18103;52.246;8.052;2024-03-23T12:24:56;99232.63;;;7.54;89.09
31483;BME280;18103;52.246;8.052;2024-03-23T12:27:26;99247.13;;;7.16;88.67
31483;BME280;18103;52.246;8.052;2024-03-23T12:29:54;99251.75;;;7.02;88.90
31483;BME280;18103;52.246;8.052;2024-03-23T12:32:19;99270.66;;;6.74;90.17
31483;BME280;18103;52.246;8.052;2024-03-23T12:34:45;99294.41;;;6.15;85.70
31483;BME280;18103;52.246;8.052;2024-03-23T12:37:16;99296.22;;;5.68;85.38
31483;BME280;18103;52.246;8.052;2024-03-23T12:39:42;99280.28;;;5.71;87.00
31483;BME280;18103;52.246;8.052;2024-03-23T12:42:10;99295.00;;;5.61;88.18
31483;BME280;18103;52.246;8.052;2024-03-23T12:44:35;99292.31;;;5.74;88.53
31483;BME280;18103;52.246;8.052;2024-03-23T12:47:05;99277.53;;;5.61;88.40
31483;BME280;18103;52.246;8.052;2024-03-23T12:49:33;99276.53;;;5.98;90.10
31483;BME280;18103;52.246;8.052;2024-03-23T12:51:58;99276.63;;;5.96;91.44
31483;BME280;18103;52.246;8.052;2024-03-23T12:54:24;99269.84;;;5.94;91.40
31483;BME280;18103;52.246;8.052;2024-03-23T12:56:52;99280.19;;;5.84;91.25
31483;BME280;18103;52.246;8.052;2024-03-23T12:59:21;99268.19;;;6.04;92.76
31483;BME280;18103;52.246;8.052;2024-03-23T13:01:47;99265.53;;;5.93;92.23
31483;BME280;18103;52.246;8.052;2024-03-23T13:04:14;99268.16;;;5.93;93.05
31483;BME280;18103;52.246;8.052;2024-03-23T13:06:42;99260.22;;;6.06;94.35
31483;BME280;18103;52.246;8.052;2024-03-23T13:09:07;99261.88;;;6.18;94.55
31483;BME280;18103;52.246;8.052;2024-03-23T13:11:36;99252.81;;;6.33;95.52
31483;BME280;18103;52.246;8.052;2024-03-23T13:14:03;99248.28;;;6.58;97.12
31483;BME280;18103;52.246;8.052;2024-03-23T13:16:29;99246.91;;;6.75;97.03
31483;BME280;18103;52.246;8.052;2024-03-23T13:18:54;99238.28;;;6.96;96.26
31483;BME280;18103;52.246;8.052;2024-03-23T13:21:22;99248.91;;;7.48;96.96
31483;BME280;18103;52.246;8.052;2024-03-23T13:23:53;99242.63;;;7.39;94.75
31483;BME280;18103;52.246;8.052;2024-03-23T13:26:21;99241.97;;;7.47;94.07
31483;BME280;18103;52.246;8.052;2024-03-23T13:28:48;99243.06;;;7.44;91.82
31483;BME280;18103;52.246;8.052;2024-03-23T13:31:14;99235.16;;;7.23;90.39
31483;BME280;18103;52.246;8.052;2024-03-23T13:33:41;99241.63;;;7.19;90.03
31483;BME280;18103;52.246;8.052;2024-03-23T13:36:09;99242.88;;;7.15;89.89
31483;BME280;18103;52.246;8.052;2024-03-23T13:38:34;99237.53;;;7.05;89.49
31483;BME280;18103;52.246;8.052;2024-03-23T13:41:02;99236.16;;;7.22;89.81
31483;BME280;18103;52.246;8.052;2024-03-23T13:43:29;99232.31;;;7.68;90.05
31483;BME280;18103;52.246;8.052;2024-03-23T13:45:58;99240.78;;;7.82;90.34
31483;BME280;18103;52.246;8.052;2024-03-23T13:48:31;99229.28;;;8.04;90.81
31483;BME280;18103;52.246;8.052;2024-03-23T13:51:03;99229.34;;;7.83;88.31
31483;BME280;18103;52.246;8.052;2024-03-23T13:53:29;99221.72;;;7.80;86.31
31483;BME280;18103;52.246;8.052;2024-03-23T13:55:57;99227.97;;;7.88;87.55
31483;BME280;18103;52.246;8.052;2024-03-23T13:58:22;99225.88;;;7.82;86.33
31483;BME280;18103;52.246;8.052;2024-03-23T14:00:51;99230.16;;;7.83;84.70
31483;BME280;18103;52.246;8.052;2024-03-23T14:03:18;99245.81;;;7.85;85.49
31483;BME280;18103;52.246;8.052;2024-03-23T14:05:47;99261.44;;;7.86;83.64
31483;BME280;18103;52.246;8.052;2024-03-23T14:08:14;99262.91;;;7.37;80.24
31483;BME280;18103;52.246;8.052;2024-03-23T14:10:41;99265.38;;;7.17;78.66
31483;BME280;18103;52.246;8.052;2024-03-23T14:13:06;99275.56;;;6.99;78.44
31483;BME280;18103;52.246;8.052;2024-03-23T14:15:34;99274.91;;;6.86;78.22